sensor_id;sensor_type;location;lat;lon;timestamp;P1;durP1;ratioP1;P2;durP2;ratioP2
39176;SDS011;24904;52.208;21.192;2022-08-01T00:00:09;5.80;;;4.30;;
39176;SDS011;24904;52.208;21.192;2022-08-01T00:05:13;7.10;;;4.50;;
39176;SDS011;24904;52.208;21.192;2022-08-01T00:10:16;8.60;;;4.40;;
39176;SDS011;24904;52.208;21.192;2022-08-01T00:15:20;11.20;;;4.00;;
39176;SDS011;24904;52.208;21.192;2022-08-01T00:20:23;8.30;;;4.50;;
39176;SDS011;24904;52.208;21.192;2022-08-01T00:25:26;6.50;;;4.10;;
39176;SDS011;24904;52.208;21.192;2022-08-01T00:30:29;6.60;;;4.00;;
39176;SDS011;24904;52.208;21.192;2022-08-01T00:35:33;9.80;;;4.90;;
39176;SDS011;24904;52.208;21.192;2022-08-01T00:40:36;6.90;;;3.90;;
39176;SDS011;24904;52.208;21.192;2022-08-01T00:45:39;4.60;;;3.60;;
39176;SDS011;24904;52.208;21.192;2022-08-01T00:50:43;5.70;;;4.00;;
39176;SDS011;24904;52.208;21.192;2022-08-01T00:55:46;7.00;;;4.50;;
39176;SDS011;24904;52.208;21.192;2022-08-01T01:00:49;8.00;;;3.90;;
39176;SDS011;24904;52.208;21.192;2022-08-01T01:05:54;11.10;;;4.90;;
39176;SDS011;24904;52.208;21.192;2022-08-01T01:11:05;8.00;;;4.20;;
39176;SDS011;24904;52.208;21.192;2022-08-01T01:16:16;10.50;;;5.00;;
39176;SDS011;24904;52.208;21.192;2022-08-01T01:21:28;8.20;;;4.20;;
39176;SDS011;24904;52.208;21.192;2022-08-01T01:26:51;7.00;;;4.10;;
39176;SDS011;24904;52.208;21.192;2022-08-01T01:32:09;9.70;;;4.60;;
39176;SDS011;24904;52.208;21.192;2022-08-01T01:37:17;6.90;;;3.80;;
39176;SDS011;24904;52.208;21.192;2022-08-01T01:42:23;10.20;;;5.10;;
39176;SDS011;24904;52.208;21.192;2022-08-01T01:47:28;5.70;;;3.60;;
39176;SDS011;24904;52.208;21.192;2022-08-01T01:52:32;6.30;;;3.90;;
39176;SDS011;24904;52.208;21.192;2022-08-01T01:57:36;9.30;;;3.70;;
39176;SDS011;24904;52.208;21.192;2022-08-01T02:02:42;6.80;;;4.20;;
39176;SDS011;24904;52.208;21.192;2022-08-01T02:07:46;9.90;;;4.60;;
39176;SDS011;24904;52.208;21.192;2022-08-01T02:12:50;9.80;;;3.80;;
39176;SDS011;24904;52.208;21.192;2022-08-01T02:17:54;8.50;;;4.10;;
39176;SDS011;24904;52.208;21.192;2022-08-01T02:23:00;14.90;;;4.50;;
39176;SDS011;24904;52.208;21.192;2022-08-01T02:28:09;8.60;;;4.50;;
39176;SDS011;24904;52.208;21.192;2022-08-01T02:33:16;10.60;;;4.50;;
39176;SDS011;24904;52.208;21.192;2022-08-01T02:38:22;10.20;;;4.10;;
39176;SDS011;24904;52.208;21.192;2022-08-01T02:43:28;10.70;;;4.40;;
39176;SDS011;24904;52.208;21.192;2022-08-01T02:48:35;9.00;;;4.10;;
39176;SDS011;24904;52.208;21.192;2022-08-01T02:53:40;6.70;;;3.90;;
39176;SDS011;24904;52.208;21.192;2022-08-01T02:58:45;9.20;;;4.30;;
39176;SDS011;24904;52.208;21.192;2022-08-01T03:03:50;11.20;;;4.20;;
39176;SDS011;24904;52.208;21.192;2022-08-01T03:08:53;8.10;;;4.10;;
39176;SDS011;24904;52.208;21.192;2022-08-01T03:13:59;10.80;;;4.00;;
39176;SDS011;24904;52.208;21.192;2022-08-01T03:19:04;11.90;;;3.90;;
39176;SDS011;24904;52.208;21.192;2022-08-01T03:24:08;10.70;;;4.30;;
39176;SDS011;24904;52.208;21.192;2022-08-01T03:29:14;12.00;;;3.80;;
39176;SDS011;24904;52.208;21.192;2022-08-01T03:34:19;6.10;;;3.60;;
39176;SDS011;24904;52.208;21.192;2022-08-01T03:39:22;8.80;;;3.30;;
39176;SDS011;24904;52.208;21.192;2022-08-01T03:44:33;5.40;;;3.10;;
39176;SDS011;24904;52.208;21.192;2022-08-01T03:49:41;7.20;;;3.10;;
39176;SDS011;24904;52.208;21.192;2022-08-01T03:54:49;7.90;;;3.50;;
39176;SDS011;24904;52.208;21.192;2022-08-01T03:59:56;9.10;;;3.70;;
39176;SDS011;24904;52.208;21.192;2022-08-01T04:05:02;6.70;;;3.40;;
39176;SDS011;24904;52.208;21.192;2022-08-01T04:10:07;8.30;;;3.50;;
39176;SDS011;24904;52.208;21.192;2022-08-01T04:15:10;7.80;;;3.50;;
39176;SDS011;24904;52.208;21.192;2022-08-01T04:20:13;6.80;;;3.40;;
39176;SDS011;24904;52.208;21.192;2022-08-01T04:25:19;7.60;;;3.70;;
39176;SDS011;24904;52.208;21.192;2022-08-01T04:30:27;11.30;;;3.80;;
39176;SDS011;24904;52.208;21.192;2022-08-01T04:35:34;7.20;;;3.70;;
39176;SDS011;24904;52.208;21.192;2022-08-01T04:40:41;12.10;;;4.30;;
39176;SDS011;24904;52.208;21.192;2022-08-01T04:45:47;11.50;;;4.40;;
39176;SDS011;24904;52.208;21.192;2022-08-01T04:50:52;9.90;;;3.60;;
39176;SDS011;24904;52.208;21.192;2022-08-01T04:55:56;8.10;;;4.30;;
39176;SDS011;24904;52.208;21.192;2022-08-01T05:00:59;6.50;;;4.00;;
39176;SDS011;24904;52.208;21.192;2022-08-01T05:06:02;8.70;;;4.70;;
39176;SDS011;24904;52.208;21.192;2022-08-01T05:11:06;8.20;;;4.20;;
39176;SDS011;24904;52.208;21.192;2022-08-01T05:16:09;7.00;;;4.10;;
39176;SDS011;24904;52.208;21.192;2022-08-01T05:21:12;9.30;;;4.50;;
39176;SDS011;24904;52.208;21.192;2022-08-01T05:26:15;13.00;;;4.80;;
39176;SDS011;24904;52.208;21.192;2022-08-01T05:31:18;9.90;;;4.50;;
39176;SDS011;24904;52.208;21.192;2022-08-01T05:36:21;10.80;;;4.60;;
39176;SDS011;24904;52.208;21.192;2022-08-01T05:41:24;13.00;;;6.00;;
39176;SDS011;24904;52.208;21.192;2022-08-01T05:46:28;10.70;;;4.80;;
39176;SDS011;24904;52.208;21.192;2022-08-01T05:51:31;15.60;;;5.40;;
39176;SDS011;24904;52.208;21.192;2022-08-01T05:56:35;9.10;;;4.80;;
39176;SDS011;24904;52.208;21.192;2022-08-01T06:01:38;13.70;;;5.10;;
39176;SDS011;24904;52.208;21.192;2022-08-01T06:06:41;10.60;;;4.80;;
39176;SDS011;24904;52.208;21.192;2022-08-01T06:11:44;9.90;;;4.80;;
39176;SDS011;24904;52.208;21.192;2022-08-01T06:16:47;11.00;;;5.70;;
39176;SDS011;24904;52.208;21.192;2022-08-01T06:21:50;9.70;;;4.50;;
39176;SDS011;24904;52.208;21.192;2022-08-01T06:26:53;13.40;;;5.50;;
39176;SDS011;24904;52.208;21.192;2022-08-01T06:31:56;17.70;;;5.70;;
39176;SDS011;24904;52.208;21.192;2022-08-01T06:36:59;14.50;;;5.30;;
39176;SDS011;24904;52.208;21.192;2022-08-01T06:42:03;10.90;;;5.10;;
39176;SDS011;24904;52.208;21.192;2022-08-01T06:47:06;12.70;;;4.60;;
39176;SDS011;24904;52.208;21.192;2022-08-01T06:52:09;10.60;;;4.80;;
39176;SDS011;24904;52.208;21.192;2022-08-01T06:57:12;8.70;;;4.40;;
39176;SDS011;24904;52.208;21.192;2022-08-01T07:02:15;9.40;;;3.50;;
39176;SDS011;24904;52.208;21.192;2022-08-01T07:07:18;7.50;;;3.30;;
39176;SDS011;24904;52.208;21.192;2022-08-01T07:12:21;6.30;;;2.60;;
39176;SDS011;24904;52.208;21.192;2022-08-01T07:17:24;5.70;;;2.50;;
39176;SDS011;24904;52.208;21.192;2022-08-01T07:22:27;7.90;;;2.20;;
39176;SDS011;24904;52.208;21.192;2022-08-01T07:27:30;5.00;;;1.90;;
39176;SDS011;24904;52.208;21.192;2022-08-01T07:32:34;4.80;;;2.20;;
39176;SDS011;24904;52.208;21.192;2022-08-01T07:37:37;3.20;;;1.50;;
39176;SDS011;24904;52.208;21.192;2022-08-01T07:42:40;4.60;;;2.00;;
39176;SDS011;24904;52.208;21.192;2022-08-01T07:47:44;8.40;;;2.30;;
39176;SDS011;24904;52.208;21.192;2022-08-01T07:52:47;5.00;;;1.80;;
39176;SDS011;24904;52.208;21.192;2022-08-01T07:57:50;3.30;;;1.70;;
39176;SDS011;24904;52.208;21.192;2022-08-01T08:02:54;2.10;;;1.00;;
39176;SDS011;24904;52.208;21.192;2022-08-01T08:07:59;5.20;;;1.70;;
39176;SDS011;24904;52.208;21.192;2022-08-01T08:13:03;5.90;;;1.40;;
39176;SDS011;24904;52.208;21.192;2022-08-01T08:18:06;3.70;;;1.90;;
39176;SDS011;24904;52.208;21.192;2022-08-01T08:23:09;7.10;;;1.70;;
39176;SDS011;24904;52.208;21.192;2022-08-01T08:28:27;4.90;;;1.90;;
39176;SDS011;24904;52.208;21.192;2022-08-01T08:33:30;7.90;;;1.70;;
39176;SDS011;24904;52.208;21.192;2022-08-01T08:38:33;5.40;;;2.10;;
39176;SDS011;24904;52.208;21.192;2022-08-01T08:43:36;3.80;;;2.00;;
39176;SDS011;24904;52.208;21.192;2022-08-01T08:48:40;3.20;;;1.40;;
39176;SDS011;24904;52.208;21.192;2022-08-01T08:53:44;3.40;;;1.60;;
39176;SDS011;24904;52.208;21.192;2022-08-01T08:58:49;5.10;;;1.60;;
39176;SDS011;24904;52.208;21.192;2022-08-01T09:03:53;7.80;;;1.90;;
39176;SDS011;24904;52.208;21.192;2022-08-01T09:08:57;6.50;;;1.80;;
39176;SDS011;24904;52.208;21.192;2022-08-01T09:14:06;6.60;;;1.70;;
39176;SDS011;24904;52.208;21.192;2022-08-01T09:19:12;6.60;;;1.40;;
39176;SDS011;24904;52.208;21.192;2022-08-01T09:24:17;2.60;;;1.40;;
39176;SDS011;24904;52.208;21.192;2022-08-01T09:29:20;4.80;;;1.80;;
39176;SDS011;24904;52.208;21.192;2022-08-01T09:34:25;5.10;;;1.80;;
39176;SDS011;24904;52.208;21.192;2022-08-01T09:39:29;8.70;;;3.60;;
39176;SDS011;24904;52.208;21.192;2022-08-01T09:44:38;7.00;;;1.90;;
39176;SDS011;24904;52.208;21.192;2022-08-01T09:49:42;4.20;;;1.60;;
39176;SDS011;24904;52.208;21.192;2022-08-01T09:54:52;4.20;;;1.40;;
39176;SDS011;24904;52.208;21.192;2022-08-01T09:59:57;5.90;;;1.60;;
39176;SDS011;24904;52.208;21.192;2022-08-01T10:05:02;4.30;;;1.60;;
39176;SDS011;24904;52.208;21.192;2022-08-01T10:10:10;4.10;;;1.60;;
39176;SDS011;24904;52.208;21.192;2022-08-01T10:15:15;9.60;;;1.70;;
39176;SDS011;24904;52.208;21.192;2022-08-01T10:20:19;6.10;;;2.40;;
39176;SDS011;24904;52.208;21.192;2022-08-01T10:25:24;2.50;;;1.40;;
39176;SDS011;24904;52.208;21.192;2022-08-01T10:30:31;6.70;;;1.60;;
39176;SDS011;24904;52.208;21.192;2022-08-01T10:35:34;3.10;;;1.40;;
39176;SDS011;24904;52.208;21.192;2022-08-01T10:40:38;4.40;;;1.20;;
39176;SDS011;24904;52.208;21.192;2022-08-01T10:45:45;4.30;;;1.20;;
39176;SDS011;24904;52.208;21.192;2022-08-01T10:50:48;2.20;;;1.40;;
39176;SDS011;24904;52.208;21.192;2022-08-01T10:55:58;4.60;;;1.50;;
39176;SDS011;24904;52.208;21.192;2022-08-01T11:06:18;3.30;;;1.50;;
39176;SDS011;24904;52.208;21.192;2022-08-01T11:11:27;8.00;;;1.50;;
39176;SDS011;24904;52.208;21.192;2022-08-01T11:16:30;4.80;;;1.40;;
39176;SDS011;24904;52.208;21.192;2022-08-01T11:27:16;2.40;;;1.40;;
39176;SDS011;24904;52.208;21.192;2022-08-01T11:32:26;3.70;;;1.40;;
39176;SDS011;24904;52.208;21.192;2022-08-01T11:37:29;2.70;;;1.40;;
39176;SDS011;24904;52.208;21.192;2022-08-01T11:42:32;3.20;;;1.40;;
39176;SDS011;24904;52.208;21.192;2022-08-01T11:47:45;3.90;;;1.70;;
39176;SDS011;24904;52.208;21.192;2022-08-01T11:52:49;6.30;;;1.60;;
39176;SDS011;24904;52.208;21.192;2022-08-01T11:58:00;6.40;;;1.70;;
39176;SDS011;24904;52.208;21.192;2022-08-01T12:03:05;4.20;;;1.40;;
39176;SDS011;24904;52.208;21.192;2022-08-01T12:08:10;4.10;;;1.70;;
39176;SDS011;24904;52.208;21.192;2022-08-01T12:13:13;5.00;;;1.40;;
39176;SDS011;24904;52.208;21.192;2022-08-01T12:18:16;5.30;;;1.50;;
39176;SDS011;24904;52.208;21.192;2022-08-01T12:23:20;4.70;;;1.90;;
39176;SDS011;24904;52.208;21.192;2022-08-01T12:28:23;5.00;;;1.90;;
39176;SDS011;24904;52.208;21.192;2022-08-01T12:33:26;7.00;;;2.40;;
39176;SDS011;24904;52.208;21.192;2022-08-01T12:38:29;6.10;;;2.00;;
39176;SDS011;24904;52.208;21.192;2022-08-01T12:43:34;4.70;;;1.90;;
39176;SDS011;24904;52.208;21.192;2022-08-01T12:48:37;6.40;;;2.10;;
39176;SDS011;24904;52.208;21.192;2022-08-01T12:53:40;5.50;;;2.10;;
39176;SDS011;24904;52.208;21.192;2022-08-01T12:58:43;11.70;;;2.30;;
39176;SDS011;24904;52.208;21.192;2022-08-01T13:03:57;3.60;;;1.90;;
39176;SDS011;24904;52.208;21.192;2022-08-01T13:09:06;9.80;;;1.80;;
39176;SDS011;24904;52.208;21.192;2022-08-01T13:14:10;3.00;;;1.60;;
39176;SDS011;24904;52.208;21.192;2022-08-01T13:19:41;6.80;;;2.10;;
39176;SDS011;24904;52.208;21.192;2022-08-01T13:24:45;4.30;;;2.00;;
39176;SDS011;24904;52.208;21.192;2022-08-01T13:29:48;4.70;;;2.50;;
39176;SDS011;24904;52.208;21.192;2022-08-01T13:35:00;6.50;;;2.20;;
39176;SDS011;24904;52.208;21.192;2022-08-01T13:40:05;3.50;;;1.70;;
39176;SDS011;24904;52.208;21.192;2022-08-01T13:45:10;6.90;;;1.80;;
39176;SDS011;24904;52.208;21.192;2022-08-01T13:50:13;4.10;;;1.90;;
39176;SDS011;24904;52.208;21.192;2022-08-01T13:55:17;4.20;;;2.30;;
39176;SDS011;24904;52.208;21.192;2022-08-01T14:00:21;9.30;;;2.00;;
39176;SDS011;24904;52.208;21.192;2022-08-01T14:05:24;5.00;;;1.70;;
39176;SDS011;24904;52.208;21.192;2022-08-01T14:10:27;4.10;;;2.00;;
39176;SDS011;24904;52.208;21.192;2022-08-01T14:15:30;4.60;;;1.90;;
39176;SDS011;24904;52.208;21.192;2022-08-01T14:20:34;3.40;;;2.00;;
39176;SDS011;24904;52.208;21.192;2022-08-01T14:25:39;7.80;;;2.40;;
39176;SDS011;24904;52.208;21.192;2022-08-01T14:30:42;6.30;;;1.70;;
39176;SDS011;24904;52.208;21.192;2022-08-01T14:35:45;7.00;;;2.80;;
39176;SDS011;24904;52.208;21.192;2022-08-01T14:40:49;6.20;;;3.30;;
39176;SDS011;24904;52.208;21.192;2022-08-01T14:45:52;10.00;;;3.40;;
39176;SDS011;24904;52.208;21.192;2022-08-01T14:50:55;5.50;;;2.60;;
39176;SDS011;24904;52.208;21.192;2022-08-01T14:55:58;6.90;;;3.00;;
39176;SDS011;24904;52.208;21.192;2022-08-01T15:01:02;8.80;;;3.50;;
39176;SDS011;24904;52.208;21.192;2022-08-01T15:06:06;6.70;;;3.60;;
39176;SDS011;24904;52.208;21.192;2022-08-01T15:11:12;4.30;;;3.30;;
39176;SDS011;24904;52.208;21.192;2022-08-01T15:16:15;8.20;;;3.30;;
39176;SDS011;24904;52.208;21.192;2022-08-01T15:21:18;13.10;;;3.80;;
39176;SDS011;24904;52.208;21.192;2022-08-01T15:26:21;5.70;;;3.30;;
39176;SDS011;24904;52.208;21.192;2022-08-01T15:31:24;7.50;;;3.20;;
39176;SDS011;24904;52.208;21.192;2022-08-01T15:36:27;5.00;;;3.50;;
39176;SDS011;24904;52.208;21.192;2022-08-01T15:41:30;7.60;;;3.50;;
39176;SDS011;24904;52.208;21.192;2022-08-01T15:46:34;6.30;;;4.10;;
39176;SDS011;24904;52.208;21.192;2022-08-01T15:51:37;8.30;;;3.80;;
39176;SDS011;24904;52.208;21.192;2022-08-01T15:56:40;6.10;;;3.70;;
39176;SDS011;24904;52.208;21.192;2022-08-01T16:01:43;7.80;;;3.90;;
39176;SDS011;24904;52.208;21.192;2022-08-01T16:06:46;8.40;;;3.60;;
39176;SDS011;24904;52.208;21.192;2022-08-01T16:11:50;7.20;;;3.70;;
39176;SDS011;24904;52.208;21.192;2022-08-01T16:16:53;5.30;;;3.70;;
39176;SDS011;24904;52.208;21.192;2022-08-01T16:21:56;6.80;;;3.50;;
39176;SDS011;24904;52.208;21.192;2022-08-01T16:26:59;4.60;;;3.10;;
39176;SDS011;24904;52.208;21.192;2022-08-01T16:32:03;7.80;;;3.30;;
39176;SDS011;24904;52.208;21.192;2022-08-01T16:37:07;4.70;;;3.20;;
39176;SDS011;24904;52.208;21.192;2022-08-01T16:42:10;6.40;;;3.50;;
39176;SDS011;24904;52.208;21.192;2022-08-01T16:47:13;6.80;;;3.70;;
39176;SDS011;24904;52.208;21.192;2022-08-01T16:52:16;9.90;;;4.00;;
39176;SDS011;24904;52.208;21.192;2022-08-01T16:57:19;8.20;;;3.40;;
39176;SDS011;24904;52.208;21.192;2022-08-01T17:02:22;4.40;;;3.50;;
39176;SDS011;24904;52.208;21.192;2022-08-01T17:07:25;8.60;;;4.00;;
39176;SDS011;24904;52.208;21.192;2022-08-01T17:12:28;6.90;;;4.10;;
39176;SDS011;24904;52.208;21.192;2022-08-01T17:17:32;10.20;;;4.10;;
39176;SDS011;24904;52.208;21.192;2022-08-01T17:22:35;8.80;;;3.80;;
39176;SDS011;24904;52.208;21.192;2022-08-01T17:27:38;4.60;;;3.20;;
39176;SDS011;24904;52.208;21.192;2022-08-01T17:32:42;29.40;;;3.70;;
39176;SDS011;24904;52.208;21.192;2022-08-01T17:37:47;13.10;;;4.10;;
39176;SDS011;24904;52.208;21.192;2022-08-01T17:42:51;5.80;;;3.80;;
39176;SDS011;24904;52.208;21.192;2022-08-01T17:47:54;6.30;;;3.00;;
39176;SDS011;24904;52.208;21.192;2022-08-01T17:52:57;8.80;;;3.50;;
39176;SDS011;24904;52.208;21.192;2022-08-01T17:58:00;4.90;;;3.30;;
39176;SDS011;24904;52.208;21.192;2022-08-01T18:03:06;6.70;;;3.40;;
39176;SDS011;24904;52.208;21.192;2022-08-01T18:08:09;7.60;;;3.80;;
39176;SDS011;24904;52.208;21.192;2022-08-01T18:13:13;7.20;;;3.90;;
39176;SDS011;24904;52.208;21.192;2022-08-01T18:18:17;10.20;;;4.40;;
39176;SDS011;24904;52.208;21.192;2022-08-01T18:23:21;12.80;;;4.40;;
39176;SDS011;24904;52.208;21.192;2022-08-01T18:28:24;6.60;;;3.60;;
39176;SDS011;24904;52.208;21.192;2022-08-01T18:33:28;7.40;;;4.20;;
39176;SDS011;24904;52.208;21.192;2022-08-01T18:38:31;6.50;;;4.20;;
39176;SDS011;24904;52.208;21.192;2022-08-01T18:43:34;11.70;;;4.50;;
39176;SDS011;24904;52.208;21.192;2022-08-01T18:48:38;8.30;;;4.60;;
39176;SDS011;24904;52.208;21.192;2022-08-01T18:53:41;10.90;;;4.50;;
39176;SDS011;24904;52.208;21.192;2022-08-01T18:58:44;7.80;;;4.40;;
39176;SDS011;24904;52.208;21.192;2022-08-01T19:03:47;7.10;;;4.80;;
39176;SDS011;24904;52.208;21.192;2022-08-01T19:08:51;8.70;;;5.10;;
39176;SDS011;24904;52.208;21.192;2022-08-01T19:13:54;10.40;;;4.80;;
39176;SDS011;24904;52.208;21.192;2022-08-01T19:18:57;13.90;;;5.30;;
39176;SDS011;24904;52.208;21.192;2022-08-01T19:24:01;14.40;;;5.30;;
39176;SDS011;24904;52.208;21.192;2022-08-01T19:29:21;9.60;;;5.20;;
39176;SDS011;24904;52.208;21.192;2022-08-01T19:34:25;9.10;;;5.00;;
39176;SDS011;24904;52.208;21.192;2022-08-01T19:39:29;11.70;;;5.50;;
39176;SDS011;24904;52.208;21.192;2022-08-01T19:44:32;9.10;;;5.40;;
39176;SDS011;24904;52.208;21.192;2022-08-01T19:49:38;15.20;;;6.00;;
39176;SDS011;24904;52.208;21.192;2022-08-01T19:54:41;8.70;;;5.50;;
39176;SDS011;24904;52.208;21.192;2022-08-01T19:59:45;8.70;;;5.60;;
39176;SDS011;24904;52.208;21.192;2022-08-01T20:04:52;13.00;;;5.60;;
39176;SDS011;24904;52.208;21.192;2022-08-01T20:09:55;6.90;;;5.00;;
39176;SDS011;24904;52.208;21.192;2022-08-01T20:14:59;8.70;;;5.20;;
39176;SDS011;24904;52.208;21.192;2022-08-01T20:20:03;11.40;;;5.50;;
39176;SDS011;24904;52.208;21.192;2022-08-01T20:25:08;11.80;;;5.40;;
39176;SDS011;24904;52.208;21.192;2022-08-01T20:30:12;7.60;;;5.00;;
39176;SDS011;24904;52.208;21.192;2022-08-01T20:35:15;11.30;;;5.40;;
39176;SDS011;24904;52.208;21.192;2022-08-01T20:40:18;8.20;;;6.00;;
39176;SDS011;24904;52.208;21.192;2022-08-01T20:45:22;9.60;;;5.90;;
39176;SDS011;24904;52.208;21.192;2022-08-01T20:50:26;12.30;;;6.00;;
39176;SDS011;24904;52.208;21.192;2022-08-01T20:55:48;8.70;;;6.40;;
39176;SDS011;24904;52.208;21.192;2022-08-01T21:00:55;10.50;;;6.70;;
39176;SDS011;24904;52.208;21.192;2022-08-01T21:06:03;12.20;;;6.60;;
39176;SDS011;24904;52.208;21.192;2022-08-01T21:11:15;12.20;;;6.60;;
39176;SDS011;24904;52.208;21.192;2022-08-01T21:16:22;11.80;;;7.20;;
39176;SDS011;24904;52.208;21.192;2022-08-01T21:21:30;13.10;;;6.90;;
39176;SDS011;24904;52.208;21.192;2022-08-01T21:26:35;9.70;;;6.50;;
39176;SDS011;24904;52.208;21.192;2022-08-01T21:31:40;7.50;;;5.90;;
39176;SDS011;24904;52.208;21.192;2022-08-01T21:36:43;11.90;;;6.20;;
39176;SDS011;24904;52.208;21.192;2022-08-01T21:41:47;8.20;;;5.70;;
39176;SDS011;24904;52.208;21.192;2022-08-01T21:46:50;9.40;;;6.80;;
39176;SDS011;24904;52.208;21.192;2022-08-01T21:51:56;8.50;;;6.20;;
39176;SDS011;24904;52.208;21.192;2022-08-01T21:57:06;7.80;;;6.30;;
39176;SDS011;24904;52.208;21.192;2022-08-01T22:02:20;11.10;;;6.70;;
39176;SDS011;24904;52.208;21.192;2022-08-01T22:07:29;8.30;;;6.90;;
39176;SDS011;24904;52.208;21.192;2022-08-01T22:12:36;9.50;;;7.10;;
39176;SDS011;24904;52.208;21.192;2022-08-01T22:17:39;8.30;;;6.50;;
39176;SDS011;24904;52.208;21.192;2022-08-01T22:22:44;10.90;;;6.50;;
39176;SDS011;24904;52.208;21.192;2022-08-01T22:27:48;11.30;;;7.10;;
39176;SDS011;24904;52.208;21.192;2022-08-01T22:32:51;8.50;;;7.20;;
39176;SDS011;24904;52.208;21.192;2022-08-01T22:37:54;12.80;;;7.50;;
39176;SDS011;24904;52.208;21.192;2022-08-01T22:42:59;10.70;;;7.40;;
39176;SDS011;24904;52.208;21.192;2022-08-01T22:48:09;12.10;;;7.70;;
39176;SDS011;24904;52.208;21.192;2022-08-01T22:53:20;11.60;;;7.30;;
39176;SDS011;24904;52.208;21.192;2022-08-01T22:58:30;12.60;;;7.60;;
39176;SDS011;24904;52.208;21.192;2022-08-01T23:03:34;11.70;;;7.20;;
39176;SDS011;24904;52.208;21.192;2022-08-01T23:08:41;11.50;;;7.20;;
39176;SDS011;24904;52.208;21.192;2022-08-01T23:13:46;12.30;;;7.50;;
39176;SDS011;24904;52.208;21.192;2022-08-01T23:18:51;10.80;;;7.10;;
39176;SDS011;24904;52.208;21.192;2022-08-01T23:23:56;15.60;;;8.90;;
39176;SDS011;24904;52.208;21.192;2022-08-01T23:29:01;13.70;;;8.90;;
39176;SDS011;24904;52.208;21.192;2022-08-01T23:34:04;11.80;;;7.70;;
39176;SDS011;24904;52.208;21.192;2022-08-01T23:39:07;15.80;;;9.30;;
39176;SDS011;24904;52.208;21.192;2022-08-01T23:44:10;18.00;;;7.90;;
39176;SDS011;24904;52.208;21.192;2022-08-01T23:49:14;12.50;;;8.40;;
39176;SDS011;24904;52.208;21.192;2022-08-01T23:54:17;12.00;;;7.80;;
39176;SDS011;24904;52.208;21.192;2022-08-01T23:59:20;13.60;;;8.50;;
